Time;durP1;ratioP1;P1;durP2;ratioP2;P2;SDS_P1;SDS_P2;PMS_P1;PMS_P2;Temp;Humidity;BMP_temperature;BMP_pressure;BME280_temperature;BME280_humidity;BME280_pressure;Samples;Min_cycle;Max_cycle;Signal;HPM_P1;HPM_P2
2023/07/22 00:02:03;;;;;;;24.97;23.60;;;22.50;55.80;;;;;;5034577;28;20502;-55
2023/07/22 00:04:30;;;;;;;25.73;24.50;;;22.50;56.00;;;;;;5034627;28;20488;-55
2023/07/22 00:06:57;;;;;;;25.67;24.47;;;22.40;56.00;;;;;;5034376;28;20547;-58
2023/07/22 00:09:25;;;;;;;24.97;23.87;;;22.40;56.00;;;;;;5034469;28;20559;-57
2023/07/22 00:11:52;;;;;;;26.03;24.83;;;22.40;56.40;;;;;;5034390;28;20441;-51
2023/07/22 00:14:19;;;;;;;27.00;25.70;;;22.40;56.60;;;;;;5034323;28;20532;-56
2023/07/22 00:16:46;;;;;;;26.50;25.00;;;22.30;56.60;;;;;;5034277;28;20496;-57
2023/07/22 00:19:14;;;;;;;26.17;24.97;;;22.30;56.60;;;;;;5034178;28;20571;-55
2023/07/22 00:21:40;;;;;;;26.50;25.20;;;22.30;56.80;;;;;;5033830;28;20576;-54
2023/07/22 00:24:08;;;;;;;27.00;25.70;;;22.20;57.00;;;;;;5033450;28;20537;-58
2023/07/22 00:26:36;;;;;;;28.73;27.40;;;22.20;57.20;;;;;;5033029;28;20465;-54
2023/07/22 00:29:04;;;;;;;27.33;25.93;;;22.20;57.10;;;;;;5034074;28;20532;-55
2023/07/22 00:31:31;;;;;;;26.27;24.97;;;22.20;57.10;;;;;;5033679;28;20449;-56
2023/07/22 00:33:58;;;;;;;26.23;24.93;;;22.20;57.30;;;;;;5034017;28;20456;-55
2023/07/22 00:36:25;;;;;;;27.67;26.10;;;22.20;57.10;;;;;;5033809;28;20560;-54
2023/07/22 00:38:53;;;;;;;25.37;24.07;;;22.10;57.20;;;;;;5033832;28;20568;-56
2023/07/22 00:41:20;;;;;;;26.97;25.70;;;22.20;57.40;;;;;;5033819;28;20444;-55
2023/07/22 00:43:48;;;;;;;27.43;26.23;;;22.10;57.50;;;;;;5033955;28;20834;-57
2023/07/22 00:46:15;;;;;;;26.97;25.63;;;22.10;57.60;;;;;;5033677;28;20551;-57
2023/07/22 00:48:42;;;;;;;26.50;25.00;;;22.10;57.70;;;;;;5033817;28;20487;-55
2023/07/22 00:51:10;;;;;;;26.70;25.60;;;22.00;57.60;;;;;;5033543;28;20522;-54
2023/07/22 00:53:36;;;;;;;28.30;26.60;;;22.00;57.70;;;;;;5033691;28;20481;-58
2023/07/22 00:56:04;;;;;;;28.17;26.77;;;22.00;57.70;;;;;;5033280;28;20567;-56
2023/07/22 00:58:31;;;;;;;27.70;26.10;;;22.00;57.80;;;;;;5033667;28;20448;-57
2023/07/22 01:00:59;;;;;;;29.40;27.73;;;22.00;57.70;;;;;;5033222;28;20548;-56
2023/07/22 01:03:28;;;;;;;27.37;25.97;;;22.00;57.80;;;;;;5033529;28;20532;-57
2023/07/22 01:05:56;;;;;;;26.73;25.53;;;22.00;57.80;;;;;;5033108;28;20473;-55
2023/07/22 01:08:23;;;;;;;27.00;25.73;;;22.00;57.80;;;;;;5032701;28;20800;-57
2023/07/22 01:10:50;;;;;;;26.60;25.20;;;21.90;57.90;;;;;;5033126;28;20878;-55
2023/07/22 01:13:17;;;;;;;26.23;25.03;;;21.90;57.70;;;;;;5033359;28;20532;-60
2023/07/22 01:15:44;;;;;;;26.13;25.03;;;21.90;57.90;;;;;;5033203;28;20901;-55
2023/07/22 01:18:12;;;;;;;26.03;24.93;;;21.90;57.90;;;;;;5032988;28;20532;-57
2023/07/22 01:20:40;;;;;;;25.67;24.33;;;21.90;57.80;;;;;;5033062;28;20910;-58
2023/07/22 01:23:08;;;;;;;25.60;24.40;;;21.90;57.90;;;;;;5013403;28;20528;-58
2023/07/22 01:25:35;;;;;;;26.03;24.83;;;21.90;58.10;;;;;;5013243;28;20508;-54
2023/07/22 01:28:02;;;;;;;25.40;24.10;;;21.90;57.80;;;;;;5012983;28;20485;-57
2023/07/22 01:30:29;;;;;;;26.40;25.00;;;21.80;57.90;;;;;;5025197;28;20450;-58
2023/07/22 01:32:56;;;;;;;27.20;25.73;;;21.80;57.70;;;;;;5032900;28;20537;-57
2023/07/22 01:35:23;;;;;;;25.90;24.50;;;21.80;57.90;;;;;;5032890;28;21010;-56
2023/07/22 01:37:50;;;;;;;27.80;26.50;;;21.80;57.80;;;;;;5032656;28;21010;-54
2023/07/22 01:40:18;;;;;;;27.70;26.13;;;21.80;57.80;;;;;;5032514;28;20477;-55
2023/07/22 01:42:45;;;;;;;26.70;25.33;;;21.80;58.10;;;;;;5033021;28;20450;-57
2023/07/22 01:45:12;;;;;;;25.87;24.57;;;21.70;58.40;;;;;;5032547;28;20528;-58
2023/07/22 01:47:40;;;;;;;27.20;25.80;;;21.70;58.30;;;;;;5032573;28;20880;-58
2023/07/22 01:50:07;;;;;;;28.47;27.07;;;21.70;58.50;;;;;;5032319;28;20449;-57
2023/07/22 01:52:34;;;;;;;28.30;27.00;;;21.70;58.60;;;;;;5032536;28;20525;-57
2023/07/22 01:55:05;;;;;;;28.23;27.00;;;21.70;58.60;;;;;;5032527;28;20484;-56
2023/07/22 01:57:33;;;;;;;26.67;25.47;;;21.70;58.60;;;;;;5032229;28;20477;-51
2023/07/22 02:00:01;;;;;;;27.67;26.00;;;21.70;58.60;;;;;;5032022;28;20531;-55
2023/07/22 02:02:28;;;;;;;26.67;25.40;;;21.70;58.80;;;;;;5032251;28;20448;-56
2023/07/22 02:04:55;;;;;;;27.83;26.33;;;21.70;59.10;;;;;;5032464;28;20480;-55
2023/07/22 02:07:26;;;;;;;27.43;26.13;;;21.60;59.20;;;;;;5032007;28;20523;-55
2023/07/22 02:09:53;;;;;;;28.13;26.47;;;21.70;59.90;;;;;;5032201;28;20495;-57
2023/07/22 02:12:20;;;;;;;28.07;26.77;;;21.70;59.30;;;;;;5032237;28;20449;-58
2023/07/22 02:14:48;;;;;;;28.00;26.67;;;21.60;59.50;;;;;;5032204;28;20943;-57
2023/07/22 02:17:15;;;;;;;26.30;25.20;;;21.60;59.10;;;;;;5031881;28;20469;-54
2023/07/22 02:19:42;;;;;;;27.40;26.10;;;21.60;59.30;;;;;;5031263;28;20478;-54
2023/07/22 02:22:10;;;;;;;27.83;26.43;;;21.60;59.20;;;;;;5031995;28;20449;-55
2023/07/22 02:24:38;;;;;;;27.70;25.97;;;21.60;59.30;;;;;;5032546;28;20531;-58
2023/07/22 02:27:05;;;;;;;26.87;25.27;;;21.60;59.50;;;;;;5031707;28;20483;-56
2023/07/22 02:29:32;;;;;;;26.97;25.83;;;21.60;59.40;;;;;;5031261;28;20532;-54
2023/07/22 02:32:01;;;;;;;26.50;25.03;;;21.60;59.40;;;;;;5031672;28;20528;-58
2023/07/22 02:34:28;;;;;;;28.30;27.00;;;21.50;59.30;;;;;;5032026;28;20459;-55
2023/07/22 02:36:54;;;;;;;29.00;27.60;;;21.50;59.20;;;;;;5031609;28;20547;-55
2023/07/22 02:39:21;;;;;;;27.90;26.70;;;21.50;59.60;;;;;;5031634;28;21074;-55
2023/07/22 02:41:49;;;;;;;27.90;26.40;;;21.50;59.60;;;;;;5031741;28;20965;-56
2023/07/22 02:44:16;;;;;;;30.23;28.47;;;21.50;59.60;;;;;;5031616;28;20531;-55
2023/07/22 02:46:42;;;;;;;28.57;27.17;;;21.50;59.90;;;;;;5031334;28;20540;-54
2023/07/22 02:49:11;;;;;;;27.63;26.30;;;21.50;59.80;;;;;;5031596;28;20492;-58
2023/07/22 02:51:38;;;;;;;28.20;26.80;;;21.40;59.70;;;;;;5031620;28;20456;-53
2023/07/22 02:54:05;;;;;;;29.53;28.20;;;21.40;59.90;;;;;;5031520;28;20532;-56
2023/07/22 02:56:32;;;;;;;28.30;27.10;;;21.40;59.80;;;;;;5080759;22;20518;-57
2023/07/22 02:58:58;;;;;;;28.90;27.30;;;21.40;59.80;;;;;;5051705;28;20468;-57
2023/07/22 03:01:25;;;;;;;26.97;25.77;;;21.40;59.70;;;;;;5051976;28;20507;-58
2023/07/22 03:03:52;;;;;;;26.20;24.90;;;21.40;59.90;;;;;;5051843;28;20216;-58
2023/07/22 03:06:20;;;;;;;28.10;27.00;;;21.40;60.00;;;;;;5051264;28;20947;-55
2023/07/22 03:08:48;;;;;;;27.47;26.27;;;21.40;60.00;;;;;;5051602;28;20491;-57
2023/07/22 03:11:15;;;;;;;26.57;25.37;;;21.40;60.30;;;;;;5051531;28;20546;-57
2023/07/22 03:13:42;;;;;;;26.90;25.33;;;21.40;60.40;;;;;;5051711;28;20452;-57
2023/07/22 03:16:09;;;;;;;27.73;26.43;;;21.40;60.30;;;;;;5051010;28;20518;-59
2023/07/22 03:18:38;;;;;;;26.73;25.63;;;21.40;60.30;;;;;;5051857;28;20491;-57
2023/07/22 03:21:05;;;;;;;27.17;25.77;;;21.40;60.10;;;;;;5051431;28;20476;-56
2023/07/22 03:23:33;;;;;;;26.90;25.80;;;21.40;60.00;;;;;;5051484;28;20530;-57
2023/07/22 03:26:00;;;;;;;28.00;26.70;;;21.30;60.00;;;;;;5051408;28;20503;-57
2023/07/22 03:28:27;;;;;;;26.13;24.73;;;21.30;59.90;;;;;;5051378;28;20475;-58
2023/07/22 03:30:54;;;;;;;27.00;25.73;;;21.30;60.10;;;;;;5051957;28;20851;-57
2023/07/22 03:33:21;;;;;;;27.57;26.37;;;21.30;60.40;;;;;;5055808;28;20444;-57
2023/07/22 03:35:48;;;;;;;26.30;25.20;;;21.30;60.10;;;;;;5055309;28;20479;-57
2023/07/22 03:38:15;;;;;;;27.50;26.20;;;21.30;59.90;;;;;;5054832;28;20510;-59
2023/07/22 03:40:43;;;;;;;26.40;25.30;;;21.30;59.90;;;;;;5055189;28;20488;-57
2023/07/22 03:43:10;;;;;;;25.50;24.50;;;21.30;59.90;;;;;;5055216;28;20468;-58
2023/07/22 03:45:39;;;;;;;25.97;24.87;;;21.30;59.80;;;;;;5054842;28;20518;-56
2023/07/22 03:48:06;;;;;;;25.67;24.67;;;21.30;59.90;;;;;;5055157;28;20451;-60
2023/07/22 03:50:33;;;;;;;27.53;26.33;;;21.30;60.00;;;;;;5055083;28;20487;-58
2023/07/22 03:53:00;;;;;;;27.47;26.27;;;21.20;59.90;;;;;;5055062;28;20468;-57
2023/07/22 03:55:26;;;;;;;28.53;27.07;;;21.20;59.90;;;;;;5054727;28;20456;-59
2023/07/22 03:57:55;;;;;;;26.73;25.53;;;21.20;59.80;;;;;;5054553;28;20583;-57
2023/07/22 04:00:22;;;;;;;28.87;27.63;;;21.20;60.10;;;;;;5054699;28;21087;-60
2023/07/22 04:02:49;;;;;;;27.63;26.47;;;21.20;60.10;;;;;;5054821;28;20467;-58
2023/07/22 04:05:16;;;;;;;28.47;27.27;;;21.20;60.70;;;;;;5054503;28;20482;-59
2023/07/22 04:07:43;;;;;;;29.97;28.47;;;21.20;60.40;;;;;;5054346;28;20534;-57
2023/07/22 04:10:10;;;;;;;29.87;28.63;;;21.20;60.70;;;;;;5054535;28;20530;-58
2023/07/22 04:12:37;;;;;;;30.90;29.30;;;21.20;60.50;;;;;;5054549;28;20476;-58
2023/07/22 04:15:06;;;;;;;30.07;28.87;;;21.20;60.40;;;;;;5054241;28;20475;-57
2023/07/22 04:17:33;;;;;;;30.27;29.03;;;21.20;60.90;;;;;;5054404;28;20561;-57
2023/07/22 04:20:00;;;;;;;30.70;29.57;;;21.20;60.60;;;;;;5054464;28;20530;-58
2023/07/22 04:22:28;;;;;;;31.10;29.80;;;21.20;61.00;;;;;;5054418;28;20487;-56
2023/07/22 04:24:55;;;;;;;29.30;28.10;;;21.10;60.90;;;;;;5054255;28;20440;-58
2023/07/22 04:27:22;;;;;;;30.03;28.67;;;21.10;60.90;;;;;;5054015;28;20551;-54
2023/07/22 04:29:50;;;;;;;29.70;28.60;;;21.10;61.20;;;;;;5054421;28;20526;-57
2023/07/22 04:32:18;;;;;;;29.90;28.70;;;21.10;61.00;;;;;;5054372;28;20452;-57
2023/07/22 04:34:45;;;;;;;30.37;29.17;;;21.10;61.20;;;;;;5053900;28;20540;-57
2023/07/22 04:37:12;;;;;;;30.10;28.90;;;21.10;61.30;;;;;;5053820;28;20538;-57
2023/07/22 04:39:39;;;;;;;31.50;30.20;;;21.10;61.30;;;;;;5053964;28;20810;-57
2023/07/22 04:42:07;;;;;;;29.30;28.00;;;21.10;61.30;;;;;;5053741;28;20517;-56
2023/07/22 04:44:34;;;;;;;29.53;28.40;;;21.10;61.40;;;;;;5053040;28;20531;-57
2023/07/22 04:47:01;;;;;;;29.53;28.30;;;21.10;61.30;;;;;;5053471;28;20480;-60
2023/07/22 04:49:29;;;;;;;29.50;28.30;;;21.10;61.50;;;;;;5053969;28;20495;-56
2023/07/22 04:51:56;;;;;;;30.77;29.27;;;21.10;61.60;;;;;;5054149;28;20448;-58
2023/07/22 04:54:23;;;;;;;27.67;26.60;;;21.10;61.80;;;;;;5053828;28;20444;-58
2023/07/22 04:56:50;;;;;;;28.70;27.38;;;21.00;61.80;;;;;;5052983;28;20888;-60
2023/07/22 04:59:17;;;;;;;31.90;30.50;;;21.10;63.50;;;;;;5052981;28;20202;-58
2023/07/22 05:01:44;;;;;;;28.87;27.70;;;21.10;63.40;;;;;;5053492;28;20508;-58
2023/07/22 05:04:11;;;;;;;29.63;28.23;;;21.20;62.80;;;;;;5053263;28;20475;-57
2023/07/22 05:06:39;;;;;;;29.30;28.00;;;21.20;62.80;;;;;;5053214;28;20496;-56
2023/07/22 05:09:06;;;;;;;30.40;29.20;;;21.30;62.60;;;;;;5053312;28;20527;-56
2023/07/22 05:11:33;;;;;;;29.80;28.50;;;21.30;62.70;;;;;;5053302;28;20453;-54
2023/07/22 05:14:00;;;;;;;30.57;29.37;;;21.30;62.80;;;;;;5053103;28;20444;-56
2023/07/22 05:16:27;;;;;;;30.10;28.80;;;21.30;62.80;;;;;;5053051;28;20496;-57
2023/07/22 05:18:54;;;;;;;31.20;29.90;;;21.40;62.60;;;;;;5053171;28;20863;-56
2023/07/22 05:21:21;;;;;;;30.87;29.43;;;21.40;62.70;;;;;;5053118;28;20488;-59
2023/07/22 05:23:49;;;;;;;30.30;29.00;;;21.40;63.70;;;;;;5052779;28;20487;-58
2023/07/22 05:26:16;;;;;;;30.10;28.80;;;21.40;62.50;;;;;;5053084;28;21053;-56
2023/07/22 05:28:43;;;;;;;30.13;28.93;;;21.50;62.20;;;;;;5052986;28;20876;-59
2023/07/22 05:31:10;;;;;;;28.67;27.47;;;21.50;61.90;;;;;;5055811;28;20482;-60
2023/07/22 05:33:37;;;;;;;28.80;27.60;;;21.60;63.20;;;;;;5053595;28;20539;-62
2023/07/22 05:36:04;;;;;;;29.93;28.73;;;21.70;63.20;;;;;;5052651;28;20475;-58
2023/07/22 05:38:32;;;;;;;28.87;27.67;;;21.70;62.80;;;;;;5052929;28;20535;-57
2023/07/22 05:41:00;;;;;;;30.13;28.73;;;21.70;61.90;;;;;;5052668;28;21011;-58
2023/07/22 05:43:27;;;;;;;29.77;28.47;;;21.80;61.60;;;;;;5052608;28;20475;-61
2023/07/22 05:45:54;;;;;;;31.67;30.23;;;21.80;61.80;;;;;;5052478;28;20468;-54
2023/07/22 05:48:21;;;;;;;28.80;27.60;;;21.90;61.50;;;;;;5052384;28;20988;-55
2023/07/22 05:50:48;;;;;;;28.13;26.93;;;21.90;61.20;;;;;;5052622;28;20440;-59
2023/07/22 05:53:15;;;;;;;29.53;28.33;;;22.00;61.60;;;;;;5052290;28;20445;-60
2023/07/22 05:55:42;;;;;;;28.40;27.30;;;22.00;62.70;;;;;;5052300;28;20545;-58
2023/07/22 05:58:17;;;;;;;30.30;29.00;;;22.00;62.90;;;;;;5051994;28;20540;-60
2023/07/22 06:00:44;;;;;;;30.47;28.87;;;22.10;62.90;;;;;;5052414;28;20582;-59
2023/07/22 06:03:11;;;;;;;32.50;31.20;;;22.20;62.50;;;;;;5051933;28;20444;-60
2023/07/22 06:05:38;;;;;;;34.17;32.87;;;22.20;62.40;;;;;;5052239;28;20530;-62
2023/07/22 06:08:05;;;;;;;34.47;33.07;;;22.20;62.20;;;;;;5052021;28;20480;-63
2023/07/22 06:10:32;;;;;;;33.97;32.57;;;22.30;62.10;;;;;;5052193;28;20536;-63
2023/07/22 06:12:59;;;;;;;37.27;35.57;;;22.30;62.30;;;;;;5051815;28;20457;-63
2023/07/22 06:15:27;;;;;;;33.40;32.00;;;22.30;62.10;;;;;;5052082;28;20941;-62
2023/07/22 06:17:54;;;;;;;31.90;30.60;;;22.40;62.00;;;;;;5051894;28;21045;-62
2023/07/22 06:20:21;;;;;;;32.27;31.07;;;22.40;62.20;;;;;;5052122;28;20571;-62
2023/07/22 06:22:48;;;;;;;34.87;33.57;;;22.50;62.10;;;;;;5051912;28;20487;-63
2023/07/22 06:25:15;;;;;;;34.70;33.30;;;22.50;62.20;;;;;;5051978;28;20525;-61
2023/07/22 06:27:42;;;;;;;34.70;33.30;;;22.50;62.00;;;;;;5051775;28;20873;-61
2023/07/22 06:30:09;;;;;;;34.43;33.03;;;22.60;61.90;;;;;;5051851;28;20440;-57
2023/07/22 06:32:39;;;;;;;33.60;32.00;;;22.60;61.80;;;;;;5051776;28;20448;-57
2023/07/22 06:35:06;;;;;;;33.83;32.43;;;22.60;61.80;;;;;;5051904;28;20539;-57
2023/07/22 06:37:33;;;;;;;34.23;32.43;;;22.60;61.70;;;;;;5053403;28;20511;-63
2023/07/22 06:40:01;;;;;;;32.43;31.13;;;22.60;62.20;;;;;;5056910;28;20442;-64
2023/07/22 06:42:29;;;;;;;32.77;31.47;;;22.70;62.40;;;;;;5053913;28;20480;-61
2023/07/22 06:44:55;;;;;;;35.90;34.40;;;22.70;62.10;;;;;;5055777;28;20444;-61
2023/07/22 06:47:22;;;;;;;34.10;32.70;;;22.70;61.80;;;;;;5056040;28;20495;-62
2023/07/22 06:49:51;;;;;;;32.37;30.90;;;22.70;61.70;;;;;;5059398;28;20828;-62
2023/07/22 06:52:18;;;;;;;34.43;33.03;;;22.80;61.60;;;;;;5053409;28;20455;-60
2023/07/22 06:54:45;;;;;;;33.33;31.93;;;22.80;61.60;;;;;;5057074;28;20476;-61
2023/07/22 06:57:12;;;;;;;34.80;33.40;;;22.80;61.20;;;;;;5051412;28;20854;-63
2023/07/22 06:59:39;;;;;;;32.30;31.00;;;22.80;61.90;;;;;;5051428;28;20535;-62
2023/07/22 07:02:06;;;;;;;35.23;33.87;;;22.80;61.30;;;;;;5051133;28;20511;-64
2023/07/22 07:04:33;;;;;;;35.43;33.63;;;22.90;61.10;;;;;;5051609;28;20479;-60
2023/07/22 07:07:02;;;;;;;33.53;31.87;;;22.90;61.20;;;;;;5050680;28;20547;-57
2023/07/22 07:09:29;;;;;;;33.43;31.90;;;22.90;60.70;;;;;;5051348;28;20484;-62
2023/07/22 07:11:56;;;;;;;34.10;32.70;;;22.90;60.60;;;;;;5051119;28;20809;-64
2023/07/22 07:14:24;;;;;;;31.20;29.60;;;22.90;60.30;;;;;;5051515;28;20522;-61
2023/07/22 07:16:51;;;;;;;32.20;30.80;;;22.90;60.80;;;;;;5051500;28;20841;-63
2023/07/22 07:19:18;;;;;;;36.20;34.70;;;22.90;60.80;;;;;;5051433;28;20486;-61
2023/07/22 07:21:44;;;;;;;33.50;32.10;;;22.90;61.00;;;;;;5051144;28;20563;-56
2023/07/22 07:24:13;;;;;;;33.83;32.43;;;22.90;60.70;;;;;;5051418;28;20471;-62
2023/07/22 07:26:40;;;;;;;34.60;33.20;;;23.00;60.50;;;;;;5051212;28;20876;-64
2023/07/22 07:29:07;;;;;;;33.90;32.60;;;23.00;60.70;;;;;;5051373;28;20476;-60
2023/07/22 07:31:34;;;;;;;35.17;33.47;;;23.00;60.60;;;;;;5051093;28;20531;-56
2023/07/22 07:34:01;;;;;;;34.43;33.00;;;23.00;60.40;;;;;;5051326;28;20452;-62
2023/07/22 07:36:28;;;;;;;35.00;33.43;;;23.00;60.50;;;;;;5050824;28;20507;-62
2023/07/22 07:38:55;;;;;;;30.60;29.30;;;23.00;60.70;;;;;;5049776;28;20523;-62
2023/07/22 07:41:23;;;;;;;35.67;33.97;;;23.10;61.50;;;;;;5050781;28;20479;-60
2023/07/22 07:43:50;;;;;;;31.80;30.50;;;23.20;60.60;;;;;;5050802;28;20514;-62
2023/07/22 07:46:20;;;;;;;34.87;33.47;;;23.20;60.20;;;;;;5051031;28;20627;-60
2023/07/22 07:48:47;;;;;;;36.00;34.50;;;23.20;60.00;;;;;;5051082;28;20789;-64
2023/07/22 07:51:14;;;;;;;36.10;34.43;;;23.20;60.00;;;;;;5050769;28;20440;-63
2023/07/22 07:53:42;;;;;;;33.10;31.67;;;23.20;60.10;;;;;;5051482;28;20479;-63
2023/07/22 07:56:09;;;;;;;35.07;33.47;;;23.20;60.50;;;;;;5050458;28;20925;-62
2023/07/22 07:58:38;;;;;;;35.07;33.50;;;23.20;60.90;;;;;;5050514;28;20526;-64
2023/07/22 08:01:06;;;;;;;33.73;32.03;;;23.20;60.80;;;;;;5031064;28;20567;-63
2023/07/22 08:03:34;;;;;;;34.30;32.50;;;23.20;61.10;;;;;;5030961;28;20441;-61
2023/07/22 08:06:01;;;;;;;35.23;33.73;;;23.20;60.90;;;;;;5030840;28;20527;-60
2023/07/22 08:08:29;;;;;;;34.30;32.83;;;23.20;60.70;;;;;;5031133;28;20452;-59
2023/07/22 08:11:00;;;;;;;33.43;32.03;;;23.20;60.60;;;;;;5047037;28;20441;-60
2023/07/22 08:13:29;;;;;;;36.00;33.90;;;23.30;60.70;;;;;;5050556;28;20448;-60
2023/07/22 08:15:58;;;;;;;34.97;33.47;;;23.20;60.90;;;;;;5050595;28;20476;-61
2023/07/22 08:18:33;;;;;;;34.53;32.83;;;23.30;60.70;;;;;;5051762;28;20451;-60
2023/07/22 08:21:06;;;;;;;33.43;31.73;;;23.30;60.50;;;;;;5034354;28;20480;-59
2023/07/22 08:23:34;;;;;;;34.37;32.97;;;23.30;60.60;;;;;;5034205;28;20461;-58
2023/07/22 08:26:01;;;;;;;36.00;34.37;;;23.30;60.70;;;;;;5034115;28;20500;-60
2023/07/22 08:28:28;;;;;;;35.07;33.43;;;23.30;60.90;;;;;;5034524;28;20866;-63
2023/07/22 08:30:57;;;;;;;34.93;33.33;;;23.30;60.80;;;;;;5053839;28;20532;-62
2023/07/22 08:33:25;;;;;;;35.43;33.83;;;23.30;61.10;;;;;;5054203;28;20535;-60
2023/07/22 08:35:52;;;;;;;32.90;31.60;;;23.40;61.20;;;;;;5053543;28;20523;-60
2023/07/22 08:38:19;;;;;;;34.47;32.83;;;23.40;61.10;;;;;;5053924;28;20531;-62
2023/07/22 08:40:50;;;;;;;33.23;31.73;;;23.40;61.40;;;;;;5053278;28;20540;-61
2023/07/22 08:43:19;;;;;;;34.30;32.80;;;23.40;61.30;;;;;;5053888;28;20528;-60
2023/07/22 08:45:47;;;;;;;33.07;31.47;;;23.40;61.10;;;;;;5053847;28;20479;-61
2023/07/22 08:48:18;;;;;;;32.13;30.73;;;23.40;61.10;;;;;;5053623;28;20527;-61
2023/07/22 08:50:47;;;;;;;33.67;32.27;;;23.40;61.10;;;;;;5054475;28;20444;-61
2023/07/22 08:53:14;;;;;;;31.77;30.37;;;23.40;61.60;;;;;;5054039;28;20504;-60
2023/07/22 08:55:42;;;;;;;34.40;32.97;;;23.40;61.20;;;;;;5053616;28;20453;-61
2023/07/22 08:58:10;;;;;;;32.07;30.57;;;23.40;60.90;;;;;;5078703;22;20492;-65
2023/07/22 09:00:37;;;;;;;33.13;31.80;;;23.50;61.20;;;;;;5069281;28;20537;-65
2023/07/22 09:03:06;;;;;;;32.37;30.97;;;23.40;61.00;;;;;;5073682;28;20533;-65
2023/07/22 09:05:35;;;;;;;32.87;31.37;;;23.50;61.20;;;;;;5073577;28;20475;-65
2023/07/22 09:08:04;;;;;;;34.87;33.37;;;23.50;61.10;;;;;;5073003;28;20550;-66
2023/07/22 09:10:33;;;;;;;33.33;31.90;;;23.50;61.50;;;;;;5073907;28;20479;-66
2023/07/22 09:13:01;;;;;;;35.77;34.17;;;23.50;61.20;;;;;;5073342;28;20530;-64
2023/07/22 09:15:29;;;;;;;33.60;32.20;;;23.50;61.90;;;;;;5073324;28;20487;-66
2023/07/22 09:17:56;;;;;;;31.40;30.00;;;23.50;61.90;;;;;;5072569;28;20824;-64
2023/07/22 09:20:23;;;;;;;36.27;34.57;;;23.60;61.80;;;;;;5072762;28;20481;-64
2023/07/22 09:22:52;;;;;;;33.30;31.90;;;23.60;61.50;;;;;;5073130;28;20539;-62
2023/07/22 09:25:21;;;;;;;32.63;31.10;;;23.60;62.50;;;;;;5073080;28;20485;-62
2023/07/22 09:27:48;;;;;;;32.90;31.37;;;23.60;61.90;;;;;;5072886;28;20505;-61
2023/07/22 09:30:26;;;;;;;33.70;32.20;;;23.60;61.60;;;;;;5072420;28;20864;-64
2023/07/22 09:32:54;;;;;;;34.20;32.73;;;23.60;61.60;;;;;;5072817;28;20439;-62
2023/07/22 09:35:22;;;;;;;35.03;33.43;;;23.60;61.40;;;;;;5072784;28;20447;-63
2023/07/22 09:37:50;;;;;;;32.40;31.00;;;23.60;61.50;;;;;;5072359;28;21079;-64
2023/07/22 09:40:23;;;;;;;33.03;31.63;;;23.70;61.50;;;;;;5072767;28;20614;-62
2023/07/22 09:42:51;;;;;;;32.97;31.53;;;23.70;61.30;;;;;;5072787;28;20605;-61
2023/07/22 09:45:19;;;;;;;31.70;30.40;;;23.70;61.30;;;;;;5072570;28;20473;-64
2023/07/22 09:47:48;;;;;;;33.47;31.87;;;23.70;61.20;;;;;;5072017;28;20502;-65
2023/07/22 09:50:16;;;;;;;36.27;34.67;;;23.70;61.00;;;;;;5072567;28;20501;-64
2023/07/22 09:52:48;;;;;;;33.17;31.70;;;23.70;60.70;;;;;;5072421;28;20443;-62
2023/07/22 09:55:18;;;;;;;31.90;30.40;;;23.70;60.30;;;;;;5072420;28;20530;-61
2023/07/22 09:57:47;;;;;;;30.20;29.00;;;23.80;59.90;;;;;;5071714;28;20471;-64
2023/07/22 10:00:15;;;;;;;32.03;30.73;;;23.70;60.00;;;;;;5072352;28;20482;-66
2023/07/22 10:02:44;;;;;;;30.00;28.80;;;23.80;60.00;;;;;;5072131;28;20567;-64
2023/07/22 10:05:15;;;;;;;29.75;28.55;;;23.70;60.10;;;;;;5071186;28;20438;-62
2023/07/22 10:07:50;;;;;;;33.93;32.63;;;23.80;60.70;;;;;;5071762;28;20571;-61
2023/07/22 10:10:20;;;;;;;33.00;31.60;;;23.80;59.70;;;;;;5072213;28;21002;-62
2023/07/22 10:12:48;;;;;;;31.40;30.10;;;23.90;59.50;;;;;;5072199;28;20526;-61
2023/07/22 10:15:18;;;;;;;32.23;30.93;;;23.80;59.20;;;;;;5071832;28;20534;-62
2023/07/22 10:17:46;;;;;;;31.60;30.20;;;23.90;59.20;;;;;;5071513;28;20989;-62
2023/07/22 10:20:15;;;;;;;31.73;30.53;;;23.80;59.10;;;;;;5071757;28;20542;-63
2023/07/22 10:22:44;;;;;;;31.43;30.03;;;23.80;59.00;;;;;;5071865;28;20486;-61
2023/07/22 10:25:12;;;;;;;31.43;30.23;;;23.80;59.10;;;;;;5071463;28;20455;-63
2023/07/22 10:27:41;;;;;;;32.60;31.30;;;23.80;59.20;;;;;;5071344;28;20567;-61
2023/07/22 10:30:10;;;;;;;31.47;30.17;;;23.80;59.20;;;;;;5071838;28;20443;-64
2023/07/22 10:32:38;;;;;;;32.40;31.10;;;23.80;59.20;;;;;;5071847;28;20443;-60
2023/07/22 10:35:09;;;;;;;30.93;29.73;;;23.80;59.10;;;;;;5071609;28;20534;-60
2023/07/22 10:37:37;;;;;;;30.00;28.80;;;23.80;59.20;;;;;;5071453;28;20502;-64
2023/07/22 10:40:19;;;;;;;33.93;32.53;;;23.80;59.20;;;;;;5071529;28;20538;-62
2023/07/22 10:42:54;;;;;;;31.67;30.37;;;23.80;59.20;;;;;;5071109;28;20479;-60
2023/07/22 10:45:29;;;;;;;32.73;31.30;;;23.80;59.00;;;;;;5071677;28;20928;-60
2023/07/22 10:48:08;;;;;;;33.17;31.87;;;23.70;59.00;;;;;;5071259;28;20498;-61
2023/07/22 10:50:46;;;;;;;32.60;31.30;;;23.70;59.10;;;;;;5071541;28;20483;-63
2023/07/22 10:53:14;;;;;;;33.40;32.00;;;23.70;59.10;;;;;;5071442;28;20431;-63
2023/07/22 10:56:06;;;;;;;33.37;32.07;;;23.60;59.20;;;;;;5031583;28;20540;-64
2023/07/22 10:58:55;;;;;;;31.90;30.70;;;23.60;59.20;;;;;;5023220;28;20807;-64
2023/07/22 11:01:25;;;;;;;32.10;30.80;;;23.60;59.30;;;;;;5031618;28;20810;-61
2023/07/22 11:04:22;;;;;;;31.83;30.23;;;23.60;59.40;;;;;;5049489;28;20471;-62
2023/07/22 11:06:56;;;;;;;34.77;33.37;;;23.60;59.50;;;;;;5071488;28;20890;-64
2023/07/22 11:09:39;;;;;;;32.77;31.47;;;23.50;59.90;;;;;;5071319;28;21136;-63
2023/07/22 11:12:08;;;;;;;31.73;30.47;;;23.60;59.90;;;;;;5071407;28;20925;-65
2023/07/22 11:14:39;;;;;;;31.03;29.83;;;23.60;59.80;;;;;;5071104;28;20443;-63
2023/07/22 11:17:08;;;;;;;30.60;29.40;;;23.60;59.80;;;;;;5071018;28;20555;-63
2023/07/22 11:19:35;;;;;;;30.63;29.33;;;23.70;59.90;;;;;;5071686;28;20443;-63
2023/07/22 11:22:02;;;;;;;31.00;29.67;;;23.70;59.80;;;;;;5071277;28;20506;-61
2023/07/22 11:24:29;;;;;;;31.33;30.13;;;23.70;59.60;;;;;;5071305;28;20508;-59
2023/07/22 11:26:56;;;;;;;33.07;31.77;;;23.70;59.80;;;;;;5070924;28;20889;-64
2023/07/22 11:29:24;;;;;;;32.40;31.20;;;23.80;59.60;;;;;;5071107;28;20531;-63
2023/07/22 11:31:52;;;;;;;30.80;29.60;;;23.80;59.40;;;;;;5070915;28;20522;-59
2023/07/22 11:34:21;;;;;;;33.60;32.30;;;23.80;59.20;;;;;;5071153;28;20530;-63
2023/07/22 11:36:48;;;;;;;32.30;31.10;;;23.90;59.20;;;;;;5070970;28;20558;-63
2023/07/22 11:39:17;;;;;;;32.83;31.53;;;23.90;59.50;;;;;;5071029;28;20471;-63
2023/07/22 11:41:45;;;;;;;30.10;29.00;;;23.90;59.50;;;;;;5070792;28;20443;-64
2023/07/22 11:44:13;;;;;;;33.00;31.63;;;23.90;59.70;;;;;;5070953;28;20530;-63
2023/07/22 11:46:49;;;;;;;30.33;29.23;;;23.90;59.50;;;;;;5070628;28;20548;-59
2023/07/22 11:49:28;;;;;;;29.53;28.33;;;23.90;59.60;;;;;;5071082;28;20458;-61
2023/07/22 11:51:56;;;;;;;31.23;30.03;;;24.00;59.80;;;;;;5071133;28;20497;-62
2023/07/22 11:54:23;;;;;;;30.80;29.70;;;24.00;59.50;;;;;;5074815;28;20956;-61
2023/07/22 11:56:50;;;;;;;31.80;30.57;;;24.00;59.50;;;;;;5074379;28;20562;-65
2023/07/22 11:59:17;;;;;;;30.73;29.53;;;24.10;59.50;;;;;;5074540;28;20475;-65
2023/07/22 12:01:46;;;;;;;35.03;33.83;;;24.10;59.50;;;;;;5074442;28;20993;-63
2023/07/22 12:04:14;;;;;;;31.70;30.43;;;24.10;59.50;;;;;;5074742;28;20479;-64
2023/07/22 12:06:43;;;;;;;34.13;32.83;;;24.10;59.30;;;;;;5074301;28;20546;-62
2023/07/22 12:09:11;;;;;;;30.93;29.77;;;24.20;59.10;;;;;;5074423;28;20479;-60
2023/07/22 12:11:38;;;;;;;33.73;32.43;;;24.10;58.90;;;;;;5074056;28;20447;-61
2023/07/22 12:14:10;;;;;;;34.17;32.70;;;24.10;59.30;;;;;;5074071;28;20467;-62
2023/07/22 12:16:38;;;;;;;32.50;30.87;;;24.20;58.80;;;;;;5074147;28;20513;-64
2023/07/22 12:19:05;;;;;;;31.83;30.43;;;24.20;58.90;;;;;;5074238;28;20478;-63
2023/07/22 12:21:33;;;;;;;34.67;33.27;;;24.20;59.30;;;;;;5074239;28;20538;-65
2023/07/22 12:24:01;;;;;;;34.07;31.90;;;24.20;66.50;;;;;;5073888;28;20474;-64
2023/07/22 12:26:28;;;;;;;32.23;30.30;;;24.30;65.10;;;;;;5073671;28;21039;-63
2023/07/22 12:28:55;;;;;;;35.57;33.47;;;24.30;65.70;;;;;;5074084;28;20859;-61
2023/07/22 12:31:22;;;;;;;33.37;31.70;;;24.30;65.60;;;;;;5074019;28;20538;-60
2023/07/22 12:33:49;;;;;;;32.90;31.30;;;24.40;65.60;;;;;;5073879;28;20514;-61